Moulstown, Pennsylvania
Current Conditions -  °F | °C
As of 1:28 PM on Wednesday 26 Nov 2014 (Local Time) from KTHV Reporting Station
Light Snow Light Snow  
Wind Chill: 27°   Ceiling: 500
Heat Index: 33°   Visibility: 1.5mi
Dew Point: 32°   Wind: 7mph
Humidity: 96%   Direction: 340°NNW
Pressure: 29.94"   Gusts: NA
Location:  39.7863°N, 76.988°W
Report Text: KTHV 261828Z AUTO 34006KT 1 1/2SM -SN BR BKN005 OVC012 01/00 A2994 RMK AO2 PRESFR P0003 T00060000
Loading
Personal Weather Stations






























Interactive Weather Map New forecast layout! Learn more

10-Day Weather Forecast

Advertisements
Track Severe Weather on mobile